Moscow Mills, MO (63362)

2:09 AM CST on February 25, 2017 (GMT -0600)
City of Troy Wastewater Plant | | Change Station

Elev 541 ft 38.96 °N, 90.94 °W | Updated 7 seconds ago

Overcast
Overcast
29.7 °F
Feels Like 30 °F
N
2.9
Wind Variable Wind from NNW
Gusts 19.0 mph

Today
High -- | Low -- °F
--% Chance of Precip.
Yesterday
High -- | Low -- °F
Precip. -- in
Pressure 29.92 in
Visibility 10.0 miles
Clouds Overcast 3500 ft
Windchill 30 °F
Dew Point 21 °F
Humidity 69%
Rainfall 0.00 in
Snow Depth Not available.
6:41 AM 5:52 PM
Waning Crescent, 2% visible
METAR KSUS 250754Z AUTO 29016G25KT 10SM OVC035 00/M07 A2991 RMK AO2 PK WND 29032/0655 SLP132 T00001067
Pressure 29.92 in
Visibility 10.0 miles
Clouds Overcast 3500 ft
Windchill 30 °F
Dew Point 21 °F
Humidity 69%
Rainfall 0.00 in
Snow Depth Not available.
6:41 AM 5:52 PM
Waning Crescent, 2% visible
METAR KSUS 250754Z AUTO 29016G25KT 10SM OVC035 00/M07 A2991 RMK AO2 PK WND 29032/0655 SLP132 T00001067

Get Your Daily Forecast Email!

Thanks for signing up!

Be on the lookout for a verification email in your inbox.

You'll start receiving the daily forecast at 8 AM.

×

10-Day Weather Forecast

Almanac

Astronomy

Feb. 25, 2017 Rise Set
Actual Time
Civil Twilight
Nautical Twilight
Astronomical Twilight
Moon
Length of Visible Light
Length of Day
Tomorrow will be .
, % of the Moon is Illuminated

Today's Extremes

State Highs State Lows

Community

WunderPhotos

Upload Photos

1,962,540 photos uploaded!

WunderBlog® & News

Nearby

Air Quality

  Air Quality AQ Index Pollutant
Not available.

Snow Depth

Station Depth Elevation

Earthquake Activity

City Distance Mag. Time & Date
Minimum magnitude displayed is 2.5.

Coastal Water Temperatures

Place Temperature

Stations

Nearby Weather Stations

Station Location Temp. Windchill Dew Point Humidity Wind Precip. Elev Updated Type
                   

Watches & Warnings

There are currently no watches in effect.